sensor_id;sensor_type;location;lat;lon;timestamp;P1;durP1;ratioP1;P2;durP2;ratioP2
48765;SDS011;65794;51.836;5.002;2024-02-26T00:01:54;4.60;;;1.75;;
48765;SDS011;65794;51.836;5.002;2024-02-26T00:04:21;3.97;;;1.88;;
48765;SDS011;65794;51.836;5.002;2024-02-26T00:06:48;5.57;;;2.20;;
48765;SDS011;65794;51.836;5.002;2024-02-26T00:09:18;6.10;;;2.38;;
48765;SDS011;65794;51.836;5.002;2024-02-26T00:11:45;4.82;;;1.95;;
48765;SDS011;65794;51.836;5.002;2024-02-26T00:14:12;4.07;;;1.95;;
48765;SDS011;65794;51.836;5.002;2024-02-26T00:16:41;4.38;;;1.88;;
48765;SDS011;65794;51.836;5.002;2024-02-26T00:19:08;6.28;;;2.00;;
48765;SDS011;65794;51.836;5.002;2024-02-26T00:21:39;9.57;;;2.72;;
48765;SDS011;65794;51.836;5.002;2024-02-26T00:24:06;5.28;;;2.22;;
48765;SDS011;65794;51.836;5.002;2024-02-26T00:26:33;11.20;;;2.60;;
48765;SDS011;65794;51.836;5.002;2024-02-26T00:28:59;3.83;;;1.65;;
48765;SDS011;65794;51.836;5.002;2024-02-26T00:31:26;3.42;;;1.67;;
48765;SDS011;65794;51.836;5.002;2024-02-26T00:33:53;5.90;;;2.58;;
48765;SDS011;65794;51.836;5.002;2024-02-26T00:36:20;5.32;;;2.03;;
48765;SDS011;65794;51.836;5.002;2024-02-26T00:38:47;5.43;;;2.55;;
48765;SDS011;65794;51.836;5.002;2024-02-26T00:41:17;8.65;;;2.50;;
48765;SDS011;65794;51.836;5.002;2024-02-26T00:43:44;5.80;;;2.47;;
48765;SDS011;65794;51.836;5.002;2024-02-26T00:46:11;5.15;;;1.88;;
48765;SDS011;65794;51.836;5.002;2024-02-26T00:48:38;4.03;;;1.95;;
48765;SDS011;65794;51.836;5.002;2024-02-26T00:51:05;6.53;;;2.15;;
48765;SDS011;65794;51.836;5.002;2024-02-26T00:53:32;8.30;;;2.60;;
48765;SDS011;65794;51.836;5.002;2024-02-26T00:55:59;8.65;;;2.08;;
48765;SDS011;65794;51.836;5.002;2024-02-26T00:58:25;5.38;;;2.53;;
48765;SDS011;65794;51.836;5.002;2024-02-26T01:00:53;6.15;;;2.25;;
48765;SDS011;65794;51.836;5.002;2024-02-26T01:03:19;5.63;;;2.33;;
48765;SDS011;65794;51.836;5.002;2024-02-26T01:05:46;7.75;;;2.25;;
48765;SDS011;65794;51.836;5.002;2024-02-26T01:08:13;5.32;;;2.30;;
48765;SDS011;65794;51.836;5.002;2024-02-26T01:10:40;4.07;;;2.28;;
48765;SDS011;65794;51.836;5.002;2024-02-26T01:13:07;3.88;;;1.98;;
48765;SDS011;65794;51.836;5.002;2024-02-26T01:15:34;4.78;;;1.88;;
48765;SDS011;65794;51.836;5.002;2024-02-26T01:18:01;6.30;;;1.88;;
48765;SDS011;65794;51.836;5.002;2024-02-26T01:20:28;3.45;;;1.80;;
48765;SDS011;65794;51.836;5.002;2024-02-26T01:22:54;4.45;;;1.77;;
48765;SDS011;65794;51.836;5.002;2024-02-26T01:25:21;7.57;;;2.08;;
48765;SDS011;65794;51.836;5.002;2024-02-26T01:27:48;10.40;;;2.63;;
48765;SDS011;65794;51.836;5.002;2024-02-26T01:30:15;6.75;;;1.90;;
48765;SDS011;65794;51.836;5.002;2024-02-26T01:32:43;4.25;;;1.92;;
48765;SDS011;65794;51.836;5.002;2024-02-26T01:35:10;5.82;;;2.25;;
48765;SDS011;65794;51.836;5.002;2024-02-26T01:37:38;5.53;;;2.10;;
48765;SDS011;65794;51.836;5.002;2024-02-26T01:40:05;6.60;;;2.60;;
48765;SDS011;65794;51.836;5.002;2024-02-26T01:42:33;7.05;;;2.22;;
48765;SDS011;65794;51.836;5.002;2024-02-26T01:45:00;5.97;;;2.60;;
48765;SDS011;65794;51.836;5.002;2024-02-26T01:47:29;6.43;;;2.28;;
48765;SDS011;65794;51.836;5.002;2024-02-26T01:49:56;5.30;;;2.55;;
48765;SDS011;65794;51.836;5.002;2024-02-26T01:52:24;4.75;;;2.50;;
48765;SDS011;65794;51.836;5.002;2024-02-26T01:54:51;5.18;;;2.30;;
48765;SDS011;65794;51.836;5.002;2024-02-26T01:57:18;6.85;;;2.38;;
48765;SDS011;65794;51.836;5.002;2024-02-26T01:59:45;5.32;;;2.63;;
48765;SDS011;65794;51.836;5.002;2024-02-26T02:02:12;8.40;;;2.63;;
48765;SDS011;65794;51.836;5.002;2024-02-26T02:04:39;6.40;;;2.40;;
48765;SDS011;65794;51.836;5.002;2024-02-26T02:07:06;6.85;;;2.38;;
48765;SDS011;65794;51.836;5.002;2024-02-26T02:09:33;6.65;;;2.60;;
48765;SDS011;65794;51.836;5.002;2024-02-26T02:12:00;6.90;;;2.80;;
48765;SDS011;65794;51.836;5.002;2024-02-26T02:14:27;8.95;;;2.58;;
48765;SDS011;65794;51.836;5.002;2024-02-26T02:16:54;6.32;;;2.78;;
48765;SDS011;65794;51.836;5.002;2024-02-26T02:19:21;4.78;;;2.35;;
48765;SDS011;65794;51.836;5.002;2024-02-26T02:21:48;5.30;;;2.42;;
48765;SDS011;65794;51.836;5.002;2024-02-26T02:24:15;12.15;;;3.00;;
48765;SDS011;65794;51.836;5.002;2024-02-26T02:26:41;5.78;;;2.58;;
48765;SDS011;65794;51.836;5.002;2024-02-26T02:29:08;7.45;;;2.47;;
48765;SDS011;65794;51.836;5.002;2024-02-26T02:31:36;6.03;;;2.70;;
48765;SDS011;65794;51.836;5.002;2024-02-26T02:34:03;9.23;;;2.85;;
48765;SDS011;65794;51.836;5.002;2024-02-26T02:36:30;11.38;;;3.33;;
48765;SDS011;65794;51.836;5.002;2024-02-26T02:38:57;7.53;;;2.80;;
48765;SDS011;65794;51.836;5.002;2024-02-26T02:41:23;7.93;;;2.97;;
48765;SDS011;65794;51.836;5.002;2024-02-26T02:43:50;6.53;;;3.08;;
48765;SDS011;65794;51.836;5.002;2024-02-26T02:46:17;8.13;;;3.38;;
48765;SDS011;65794;51.836;5.002;2024-02-26T02:48:44;6.60;;;2.78;;
48765;SDS011;65794;51.836;5.002;2024-02-26T02:51:11;10.20;;;3.10;;
48765;SDS011;65794;51.836;5.002;2024-02-26T02:53:38;6.93;;;2.90;;
48765;SDS011;65794;51.836;5.002;2024-02-26T02:56:05;5.68;;;2.58;;
48765;SDS011;65794;51.836;5.002;2024-02-26T02:58:32;5.90;;;2.83;;
48765;SDS011;65794;51.836;5.002;2024-02-26T03:00:59;7.80;;;3.55;;
48765;SDS011;65794;51.836;5.002;2024-02-26T03:03:28;7.93;;;3.17;;
48765;SDS011;65794;51.836;5.002;2024-02-26T03:05:57;5.85;;;2.78;;
48765;SDS011;65794;51.836;5.002;2024-02-26T03:08:24;6.63;;;3.08;;
48765;SDS011;65794;51.836;5.002;2024-02-26T03:10:52;10.13;;;3.40;;
48765;SDS011;65794;51.836;5.002;2024-02-26T03:13:19;5.70;;;2.80;;
48765;SDS011;65794;51.836;5.002;2024-02-26T03:15:46;7.78;;;3.00;;
48765;SDS011;65794;51.836;5.002;2024-02-26T03:18:16;5.57;;;2.92;;
48765;SDS011;65794;51.836;5.002;2024-02-26T03:20:43;8.55;;;2.78;;
48765;SDS011;65794;51.836;5.002;2024-02-26T03:23:10;8.63;;;3.22;;
48765;SDS011;65794;51.836;5.002;2024-02-26T03:25:39;6.82;;;2.80;;
48765;SDS011;65794;51.836;5.002;2024-02-26T03:28:06;9.15;;;3.08;;
48765;SDS011;65794;51.836;5.002;2024-02-26T03:30:33;8.48;;;3.22;;
48765;SDS011;65794;51.836;5.002;2024-02-26T03:33:01;8.95;;;3.25;;
48765;SDS011;65794;51.836;5.002;2024-02-26T03:35:28;7.20;;;3.10;;
48765;SDS011;65794;51.836;5.002;2024-02-26T03:37:55;8.82;;;3.28;;
48765;SDS011;65794;51.836;5.002;2024-02-26T03:40:22;7.82;;;3.72;;
48765;SDS011;65794;51.836;5.002;2024-02-26T03:42:48;6.47;;;3.03;;
48765;SDS011;65794;51.836;5.002;2024-02-26T03:45:15;9.23;;;3.97;;
48765;SDS011;65794;51.836;5.002;2024-02-26T03:47:42;7.50;;;3.60;;
48765;SDS011;65794;51.836;5.002;2024-02-26T03:50:09;8.02;;;3.63;;
48765;SDS011;65794;51.836;5.002;2024-02-26T03:52:35;8.90;;;3.53;;
48765;SDS011;65794;51.836;5.002;2024-02-26T03:55:02;10.50;;;3.70;;
48765;SDS011;65794;51.836;5.002;2024-02-26T03:57:29;10.98;;;3.65;;
48765;SDS011;65794;51.836;5.002;2024-02-26T03:59:56;11.15;;;3.92;;
48765;SDS011;65794;51.836;5.002;2024-02-26T04:02:23;8.10;;;3.17;;
48765;SDS011;65794;51.836;5.002;2024-02-26T04:04:50;7.28;;;3.28;;
48765;SDS011;65794;51.836;5.002;2024-02-26T04:07:16;10.77;;;4.35;;
48765;SDS011;65794;51.836;5.002;2024-02-26T04:09:44;12.38;;;3.88;;
48765;SDS011;65794;51.836;5.002;2024-02-26T04:12:10;9.93;;;3.75;;
48765;SDS011;65794;51.836;5.002;2024-02-26T04:14:37;9.27;;;3.45;;
48765;SDS011;65794;51.836;5.002;2024-02-26T04:17:04;7.10;;;3.33;;
48765;SDS011;65794;51.836;5.002;2024-02-26T04:19:31;7.32;;;3.65;;
48765;SDS011;65794;51.836;5.002;2024-02-26T04:21:59;7.38;;;3.47;;
48765;SDS011;65794;51.836;5.002;2024-02-26T04:24:26;7.97;;;3.70;;
48765;SDS011;65794;51.836;5.002;2024-02-26T04:26:53;9.35;;;3.85;;
48765;SDS011;65794;51.836;5.002;2024-02-26T04:29:19;7.22;;;3.35;;
48765;SDS011;65794;51.836;5.002;2024-02-26T04:31:46;17.88;;;3.97;;
48765;SDS011;65794;51.836;5.002;2024-02-26T04:34:14;6.43;;;3.35;;
48765;SDS011;65794;51.836;5.002;2024-02-26T04:36:41;7.63;;;3.53;;
48765;SDS011;65794;51.836;5.002;2024-02-26T04:39:09;8.30;;;3.72;;
48765;SDS011;65794;51.836;5.002;2024-02-26T04:41:36;7.88;;;3.67;;
48765;SDS011;65794;51.836;5.002;2024-02-26T04:44:03;11.85;;;4.60;;
48765;SDS011;65794;51.836;5.002;2024-02-26T04:46:30;10.05;;;4.53;;
48765;SDS011;65794;51.836;5.002;2024-02-26T04:48:57;9.45;;;4.03;;
48765;SDS011;65794;51.836;5.002;2024-02-26T04:51:25;13.38;;;3.80;;
48765;SDS011;65794;51.836;5.002;2024-02-26T04:53:52;7.10;;;3.28;;
48765;SDS011;65794;51.836;5.002;2024-02-26T04:56:21;9.15;;;4.32;;
48765;SDS011;65794;51.836;5.002;2024-02-26T04:58:47;7.80;;;3.78;;
48765;SDS011;65794;51.836;5.002;2024-02-26T05:01:15;9.73;;;4.22;;
48765;SDS011;65794;51.836;5.002;2024-02-26T05:03:43;13.77;;;4.00;;
48765;SDS011;65794;51.836;5.002;2024-02-26T05:06:10;10.07;;;3.78;;
48765;SDS011;65794;51.836;5.002;2024-02-26T05:08:38;8.80;;;4.00;;
48765;SDS011;65794;51.836;5.002;2024-02-26T05:11:05;10.23;;;3.92;;
48765;SDS011;65794;51.836;5.002;2024-02-26T05:13:32;9.48;;;3.38;;
48765;SDS011;65794;51.836;5.002;2024-02-26T05:16:02;9.52;;;4.18;;
48765;SDS011;65794;51.836;5.002;2024-02-26T05:18:29;8.32;;;3.58;;
48765;SDS011;65794;51.836;5.002;2024-02-26T05:20:57;6.82;;;2.83;;
48765;SDS011;65794;51.836;5.002;2024-02-26T05:23:23;13.18;;;3.88;;
48765;SDS011;65794;51.836;5.002;2024-02-26T05:25:50;8.48;;;4.10;;
48765;SDS011;65794;51.836;5.002;2024-02-26T05:28:17;7.88;;;3.30;;
48765;SDS011;65794;51.836;5.002;2024-02-26T05:30:48;6.65;;;2.95;;
48765;SDS011;65794;51.836;5.002;2024-02-26T05:33:15;13.23;;;3.67;;
48765;SDS011;65794;51.836;5.002;2024-02-26T05:35:44;12.40;;;4.20;;
48765;SDS011;65794;51.836;5.002;2024-02-26T05:38:12;6.32;;;2.80;;
48765;SDS011;65794;51.836;5.002;2024-02-26T05:40:39;8.82;;;3.47;;
48765;SDS011;65794;51.836;5.002;2024-02-26T05:43:06;9.32;;;3.42;;
48765;SDS011;65794;51.836;5.002;2024-02-26T05:45:34;8.20;;;3.65;;
48765;SDS011;65794;51.836;5.002;2024-02-26T05:48:00;10.13;;;4.00;;
48765;SDS011;65794;51.836;5.002;2024-02-26T05:50:28;10.60;;;4.35;;
48765;SDS011;65794;51.836;5.002;2024-02-26T05:52:54;9.85;;;3.70;;
48765;SDS011;65794;51.836;5.002;2024-02-26T05:55:21;7.85;;;3.13;;
48765;SDS011;65794;51.836;5.002;2024-02-26T05:57:48;7.88;;;2.92;;
48765;SDS011;65794;51.836;5.002;2024-02-26T06:00:16;8.55;;;3.80;;
48765;SDS011;65794;51.836;5.002;2024-02-26T06:02:43;7.30;;;3.53;;
48765;SDS011;65794;51.836;5.002;2024-02-26T06:05:10;8.98;;;3.35;;
48765;SDS011;65794;51.836;5.002;2024-02-26T06:07:37;8.00;;;3.08;;
48765;SDS011;65794;51.836;5.002;2024-02-26T06:10:04;8.15;;;3.10;;
48765;SDS011;65794;51.836;5.002;2024-02-26T06:12:31;8.98;;;3.55;;
48765;SDS011;65794;51.836;5.002;2024-02-26T06:14:59;9.27;;;3.75;;
48765;SDS011;65794;51.836;5.002;2024-02-26T06:17:28;7.72;;;3.67;;
48765;SDS011;65794;51.836;5.002;2024-02-26T06:19:55;8.23;;;3.17;;
48765;SDS011;65794;51.836;5.002;2024-02-26T06:22:21;6.80;;;2.97;;
48765;SDS011;65794;51.836;5.002;2024-02-26T06:24:48;7.88;;;3.20;;
48765;SDS011;65794;51.836;5.002;2024-02-26T06:27:15;9.15;;;3.72;;
48765;SDS011;65794;51.836;5.002;2024-02-26T06:29:41;7.30;;;3.13;;
48765;SDS011;65794;51.836;5.002;2024-02-26T06:32:08;7.43;;;3.28;;
48765;SDS011;65794;51.836;5.002;2024-02-26T06:34:36;9.20;;;3.30;;
48765;SDS011;65794;51.836;5.002;2024-02-26T06:37:05;10.32;;;3.15;;
48765;SDS011;65794;51.836;5.002;2024-02-26T06:39:32;8.98;;;3.50;;
48765;SDS011;65794;51.836;5.002;2024-02-26T06:41:59;6.75;;;3.15;;
48765;SDS011;65794;51.836;5.002;2024-02-26T06:44:28;8.38;;;3.55;;
48765;SDS011;65794;51.836;5.002;2024-02-26T06:47:00;7.53;;;3.10;;
48765;SDS011;65794;51.836;5.002;2024-02-26T06:49:27;8.23;;;3.90;;
48765;SDS011;65794;51.836;5.002;2024-02-26T06:51:55;10.20;;;3.65;;
48765;SDS011;65794;51.836;5.002;2024-02-26T06:54:21;10.35;;;3.90;;
48765;SDS011;65794;51.836;5.002;2024-02-26T06:56:48;7.88;;;2.83;;
48765;SDS011;65794;51.836;5.002;2024-02-26T06:59:15;7.63;;;3.92;;
48765;SDS011;65794;51.836;5.002;2024-02-26T07:01:42;8.98;;;3.70;;
48765;SDS011;65794;51.836;5.002;2024-02-26T07:04:09;7.55;;;3.63;;
48765;SDS011;65794;51.836;5.002;2024-02-26T07:06:37;10.57;;;3.50;;
48765;SDS011;65794;51.836;5.002;2024-02-26T07:09:04;9.30;;;4.03;;
48765;SDS011;65794;51.836;5.002;2024-02-26T07:11:31;13.35;;;4.20;;
48765;SDS011;65794;51.836;5.002;2024-02-26T07:13:58;13.18;;;3.83;;
48765;SDS011;65794;51.836;5.002;2024-02-26T07:16:24;9.98;;;4.18;;
48765;SDS011;65794;51.836;5.002;2024-02-26T07:18:51;22.85;;;4.57;;
48765;SDS011;65794;51.836;5.002;2024-02-26T07:21:18;15.75;;;4.13;;
48765;SDS011;65794;51.836;5.002;2024-02-26T07:23:45;10.57;;;4.20;;
48765;SDS011;65794;51.836;5.002;2024-02-26T07:26:12;11.38;;;4.63;;
48765;SDS011;65794;51.836;5.002;2024-02-26T07:28:38;12.73;;;4.40;;
48765;SDS011;65794;51.836;5.002;2024-02-26T07:31:05;9.13;;;3.50;;
48765;SDS011;65794;51.836;5.002;2024-02-26T07:33:32;9.38;;;4.25;;
48765;SDS011;65794;51.836;5.002;2024-02-26T07:35:59;15.43;;;5.03;;
48765;SDS011;65794;51.836;5.002;2024-02-26T07:38:26;13.18;;;5.78;;
48765;SDS011;65794;51.836;5.002;2024-02-26T07:41:07;11.00;;;4.65;;
48765;SDS011;65794;51.836;5.002;2024-02-26T07:43:35;13.07;;;5.78;;
48765;SDS011;65794;51.836;5.002;2024-02-26T07:46:02;12.55;;;5.10;;
48765;SDS011;65794;51.836;5.002;2024-02-26T07:48:29;15.25;;;5.45;;
48765;SDS011;65794;51.836;5.002;2024-02-26T07:50:56;12.50;;;5.43;;
48765;SDS011;65794;51.836;5.002;2024-02-26T07:53:23;15.27;;;5.05;;
48765;SDS011;65794;51.836;5.002;2024-02-26T07:55:49;13.07;;;5.70;;
48765;SDS011;65794;51.836;5.002;2024-02-26T07:58:16;16.67;;;5.80;;
48765;SDS011;65794;51.836;5.002;2024-02-26T08:00:43;15.60;;;5.43;;
48765;SDS011;65794;51.836;5.002;2024-02-26T08:03:10;15.60;;;5.38;;
48765;SDS011;65794;51.836;5.002;2024-02-26T08:05:37;15.20;;;5.03;;
48765;SDS011;65794;51.836;5.002;2024-02-26T08:08:06;14.15;;;5.97;;
48765;SDS011;65794;51.836;5.002;2024-02-26T08:10:34;12.50;;;5.03;;
48765;SDS011;65794;51.836;5.002;2024-02-26T08:13:00;16.13;;;5.50;;
48765;SDS011;65794;51.836;5.002;2024-02-26T08:15:32;14.82;;;6.05;;
48765;SDS011;65794;51.836;5.002;2024-02-26T08:18:01;12.40;;;4.88;;
48765;SDS011;65794;51.836;5.002;2024-02-26T08:20:32;17.67;;;5.95;;
48765;SDS011;65794;51.836;5.002;2024-02-26T08:22:58;20.02;;;5.32;;
48765;SDS011;65794;51.836;5.002;2024-02-26T08:25:25;15.77;;;5.78;;
48765;SDS011;65794;51.836;5.002;2024-02-26T08:27:52;13.77;;;5.32;;
48765;SDS011;65794;51.836;5.002;2024-02-26T08:30:19;18.40;;;6.85;;
48765;SDS011;65794;51.836;5.002;2024-02-26T08:32:47;17.58;;;6.40;;
48765;SDS011;65794;51.836;5.002;2024-02-26T08:35:18;18.63;;;5.90;;
48765;SDS011;65794;51.836;5.002;2024-02-26T08:37:45;16.55;;;5.68;;
48765;SDS011;65794;51.836;5.002;2024-02-26T08:40:12;14.68;;;5.13;;
48765;SDS011;65794;51.836;5.002;2024-02-26T08:42:39;15.15;;;5.47;;
48765;SDS011;65794;51.836;5.002;2024-02-26T08:45:07;15.40;;;6.03;;
48765;SDS011;65794;51.836;5.002;2024-02-26T08:47:34;15.70;;;5.60;;
48765;SDS011;65794;51.836;5.002;2024-02-26T08:50:01;17.58;;;6.90;;
48765;SDS011;65794;51.836;5.002;2024-02-26T08:52:29;14.23;;;5.43;;
48765;SDS011;65794;51.836;5.002;2024-02-26T08:54:55;19.65;;;6.68;;
48765;SDS011;65794;51.836;5.002;2024-02-26T08:57:23;28.98;;;7.50;;
48765;SDS011;65794;51.836;5.002;2024-02-26T08:59:50;22.33;;;8.20;;
48765;SDS011;65794;51.836;5.002;2024-02-26T09:02:17;26.02;;;7.50;;
48765;SDS011;65794;51.836;5.002;2024-02-26T09:04:46;21.30;;;8.20;;
48765;SDS011;65794;51.836;5.002;2024-02-26T09:07:13;23.05;;;8.73;;
48765;SDS011;65794;51.836;5.002;2024-02-26T09:09:40;24.30;;;8.20;;
48765;SDS011;65794;51.836;5.002;2024-02-26T09:12:07;23.73;;;9.57;;
48765;SDS011;65794;51.836;5.002;2024-02-26T09:14:34;23.20;;;8.75;;
48765;SDS011;65794;51.836;5.002;2024-02-26T09:17:01;24.70;;;8.13;;
48765;SDS011;65794;51.836;5.002;2024-02-26T09:19:28;27.65;;;9.65;;
48765;SDS011;65794;51.836;5.002;2024-02-26T09:21:55;19.80;;;7.75;;
48765;SDS011;65794;51.836;5.002;2024-02-26T09:24:24;22.33;;;8.13;;
48765;SDS011;65794;51.836;5.002;2024-02-26T09:26:51;20.52;;;8.18;;
48765;SDS011;65794;51.836;5.002;2024-02-26T09:29:18;21.08;;;7.63;;
48765;SDS011;65794;51.836;5.002;2024-02-26T09:31:45;17.60;;;7.55;;
48765;SDS011;65794;51.836;5.002;2024-02-26T09:34:14;17.38;;;7.60;;
48765;SDS011;65794;51.836;5.002;2024-02-26T09:36:41;17.63;;;7.28;;
48765;SDS011;65794;51.836;5.002;2024-02-26T09:39:08;17.63;;;7.95;;
48765;SDS011;65794;51.836;5.002;2024-02-26T09:41:38;19.58;;;7.35;;
48765;SDS011;65794;51.836;5.002;2024-02-26T09:44:06;20.48;;;7.28;;
48765;SDS011;65794;51.836;5.002;2024-02-26T09:46:33;16.85;;;5.95;;
48765;SDS011;65794;51.836;5.002;2024-02-26T09:49:00;17.42;;;6.50;;
48765;SDS011;65794;51.836;5.002;2024-02-26T09:51:27;16.95;;;6.25;;
48765;SDS011;65794;51.836;5.002;2024-02-26T09:53:56;15.50;;;6.15;;
48765;SDS011;65794;51.836;5.002;2024-02-26T09:56:23;17.55;;;6.25;;
48765;SDS011;65794;51.836;5.002;2024-02-26T09:58:50;14.00;;;6.32;;
48765;SDS011;65794;51.836;5.002;2024-02-26T10:01:21;15.00;;;6.30;;
48765;SDS011;65794;51.836;5.002;2024-02-26T10:03:50;14.32;;;5.63;;
48765;SDS011;65794;51.836;5.002;2024-02-26T10:06:18;15.95;;;5.18;;
48765;SDS011;65794;51.836;5.002;2024-02-26T10:08:45;19.40;;;6.22;;
48765;SDS011;65794;51.836;5.002;2024-02-26T10:11:13;14.77;;;5.15;;
48765;SDS011;65794;51.836;5.002;2024-02-26T10:13:41;14.50;;;5.30;;
48765;SDS011;65794;51.836;5.002;2024-02-26T10:16:07;16.08;;;6.05;;
48765;SDS011;65794;51.836;5.002;2024-02-26T10:18:50;13.30;;;5.55;;
48765;SDS011;65794;51.836;5.002;2024-02-26T10:21:25;15.07;;;5.38;;
48765;SDS011;65794;51.836;5.002;2024-02-26T10:23:52;15.20;;;6.10;;
48765;SDS011;65794;51.836;5.002;2024-02-26T10:26:19;12.30;;;4.88;;
48765;SDS011;65794;51.836;5.002;2024-02-26T10:28:46;13.10;;;4.97;;
48765;SDS011;65794;51.836;5.002;2024-02-26T10:31:19;13.52;;;5.32;;
48765;SDS011;65794;51.836;5.002;2024-02-26T10:33:45;12.55;;;4.70;;
48765;SDS011;65794;51.836;5.002;2024-02-26T10:36:13;13.63;;;4.80;;
48765;SDS011;65794;51.836;5.002;2024-02-26T10:38:40;11.68;;;4.22;;
48765;SDS011;65794;51.836;5.002;2024-02-26T10:41:06;11.30;;;4.68;;
48765;SDS011;65794;51.836;5.002;2024-02-26T10:43:35;11.35;;;4.20;;
48765;SDS011;65794;51.836;5.002;2024-02-26T10:46:02;17.52;;;5.28;;
48765;SDS011;65794;51.836;5.002;2024-02-26T10:48:29;12.32;;;4.53;;
48765;SDS011;65794;51.836;5.002;2024-02-26T10:50:56;8.85;;;3.72;;
48765;SDS011;65794;51.836;5.002;2024-02-26T10:53:26;10.82;;;4.90;;
48765;SDS011;65794;51.836;5.002;2024-02-26T10:55:57;7.50;;;2.75;;
48765;SDS011;65794;51.836;5.002;2024-02-26T10:58:25;9.68;;;3.63;;
48765;SDS011;65794;51.836;5.002;2024-02-26T11:00:52;9.77;;;4.50;;
48765;SDS011;65794;51.836;5.002;2024-02-26T11:03:20;13.70;;;5.78;;
48765;SDS011;65794;51.836;5.002;2024-02-26T11:05:48;12.60;;;4.95;;
48765;SDS011;65794;51.836;5.002;2024-02-26T11:08:16;11.07;;;4.63;;
48765;SDS011;65794;51.836;5.002;2024-02-26T11:10:46;12.23;;;4.28;;
48765;SDS011;65794;51.836;5.002;2024-02-26T11:13:14;9.85;;;4.70;;
48765;SDS011;65794;51.836;5.002;2024-02-26T11:15:41;11.60;;;4.68;;
48765;SDS011;65794;51.836;5.002;2024-02-26T11:18:08;11.10;;;4.85;;
48765;SDS011;65794;51.836;5.002;2024-02-26T11:20:38;9.82;;;3.90;;
48765;SDS011;65794;51.836;5.002;2024-02-26T11:23:05;12.50;;;5.20;;
48765;SDS011;65794;51.836;5.002;2024-02-26T11:25:37;11.65;;;4.72;;
48765;SDS011;65794;51.836;5.002;2024-02-26T11:28:06;10.57;;;4.38;;
48765;SDS011;65794;51.836;5.002;2024-02-26T11:30:35;11.35;;;4.72;;
48765;SDS011;65794;51.836;5.002;2024-02-26T11:33:08;9.40;;;4.20;;
48765;SDS011;65794;51.836;5.002;2024-02-26T11:35:36;8.52;;;3.40;;
48765;SDS011;65794;51.836;5.002;2024-02-26T11:38:03;9.10;;;3.83;;
48765;SDS011;65794;51.836;5.002;2024-02-26T11:40:31;10.57;;;4.28;;
48765;SDS011;65794;51.836;5.002;2024-02-26T11:42:58;8.60;;;3.30;;
48765;SDS011;65794;51.836;5.002;2024-02-26T11:48:16;9.82;;;3.88;;
48765;SDS011;65794;51.836;5.002;2024-02-26T11:50:47;9.23;;;4.20;;
48765;SDS011;65794;51.836;5.002;2024-02-26T11:53:48;8.27;;;3.78;;
48765;SDS011;65794;51.836;5.002;2024-02-26T11:58:46;12.57;;;4.25;;
48765;SDS011;65794;51.836;5.002;2024-02-26T12:03:58;9.35;;;4.03;;
48765;SDS011;65794;51.836;5.002;2024-02-26T12:06:25;21.58;;;4.90;;
48765;SDS011;65794;51.836;5.002;2024-02-26T12:08:52;11.88;;;4.72;;
48765;SDS011;65794;51.836;5.002;2024-02-26T12:11:20;9.30;;;3.97;;
48765;SDS011;65794;51.836;5.002;2024-02-26T12:13:47;11.07;;;4.10;;
48765;SDS011;65794;51.836;5.002;2024-02-26T12:16:35;8.32;;;3.78;;
48765;SDS011;65794;51.836;5.002;2024-02-26T12:19:06;7.60;;;3.30;;
48765;SDS011;65794;51.836;5.002;2024-02-26T12:21:34;9.68;;;3.97;;
48765;SDS011;65794;51.836;5.002;2024-02-26T12:24:11;11.85;;;4.70;;
48765;SDS011;65794;51.836;5.002;2024-02-26T12:26:39;10.35;;;3.85;;
48765;SDS011;65794;51.836;5.002;2024-02-26T12:29:07;13.77;;;4.55;;
48765;SDS011;65794;51.836;5.002;2024-02-26T12:31:34;11.40;;;4.05;;
48765;SDS011;65794;51.836;5.002;2024-02-26T12:34:04;11.52;;;4.55;;
48765;SDS011;65794;51.836;5.002;2024-02-26T12:36:31;10.77;;;5.30;;
48765;SDS011;65794;51.836;5.002;2024-02-26T12:38:59;12.63;;;5.15;;
48765;SDS011;65794;51.836;5.002;2024-02-26T12:41:27;13.68;;;4.60;;
48765;SDS011;65794;51.836;5.002;2024-02-26T12:43:54;15.07;;;5.38;;
48765;SDS011;65794;51.836;5.002;2024-02-26T12:46:21;11.93;;;5.00;;
48765;SDS011;65794;51.836;5.002;2024-02-26T12:48:49;11.52;;;5.13;;
48765;SDS011;65794;51.836;5.002;2024-02-26T12:51:16;14.35;;;5.00;;
48765;SDS011;65794;51.836;5.002;2024-02-26T12:53:44;13.80;;;5.13;;
48765;SDS011;65794;51.836;5.002;2024-02-26T12:56:11;10.73;;;3.53;;
48765;SDS011;65794;51.836;5.002;2024-02-26T12:58:41;9.95;;;3.58;;
48765;SDS011;65794;51.836;5.002;2024-02-26T13:01:10;11.02;;;4.22;;
48765;SDS011;65794;51.836;5.002;2024-02-26T13:03:40;10.55;;;4.05;;
48765;SDS011;65794;51.836;5.002;2024-02-26T13:06:07;11.07;;;4.68;;
48765;SDS011;65794;51.836;5.002;2024-02-26T13:08:35;9.75;;;4.72;;
48765;SDS011;65794;51.836;5.002;2024-02-26T13:11:02;8.38;;;3.55;;
48765;SDS011;65794;51.836;5.002;2024-02-26T13:13:28;11.13;;;3.97;;
48765;SDS011;65794;51.836;5.002;2024-02-26T13:16:02;11.40;;;4.40;;
48765;SDS011;65794;51.836;5.002;2024-02-26T13:18:30;7.18;;;3.08;;
48765;SDS011;65794;51.836;5.002;2024-02-26T13:23:37;11.52;;;4.43;;
48765;SDS011;65794;51.836;5.002;2024-02-26T13:26:04;8.77;;;3.90;;
48765;SDS011;65794;51.836;5.002;2024-02-26T13:28:31;10.38;;;4.68;;
48765;SDS011;65794;51.836;5.002;2024-02-26T13:30:59;11.90;;;4.25;;
48765;SDS011;65794;51.836;5.002;2024-02-26T13:33:27;10.98;;;4.10;;
48765;SDS011;65794;51.836;5.002;2024-02-26T13:35:55;9.93;;;4.57;;
48765;SDS011;65794;51.836;5.002;2024-02-26T13:38:22;9.57;;;4.25;;
48765;SDS011;65794;51.836;5.002;2024-02-26T13:40:50;8.02;;;3.33;;
48765;SDS011;65794;51.836;5.002;2024-02-26T13:43:17;9.15;;;4.15;;
48765;SDS011;65794;51.836;5.002;2024-02-26T13:45:44;9.75;;;4.30;;
48765;SDS011;65794;51.836;5.002;2024-02-26T13:48:11;10.38;;;4.07;;
48765;SDS011;65794;51.836;5.002;2024-02-26T13:50:39;10.48;;;4.38;;
48765;SDS011;65794;51.836;5.002;2024-02-26T13:53:06;9.55;;;4.18;;
48765;SDS011;65794;51.836;5.002;2024-02-26T13:55:33;8.95;;;3.90;;
48765;SDS011;65794;51.836;5.002;2024-02-26T13:58:00;9.38;;;3.75;;
48765;SDS011;65794;51.836;5.002;2024-02-26T14:00:30;9.50;;;4.20;;
48765;SDS011;65794;51.836;5.002;2024-02-26T14:03:01;13.13;;;4.65;;
48765;SDS011;65794;51.836;5.002;2024-02-26T14:05:28;10.43;;;4.70;;
48765;SDS011;65794;51.836;5.002;2024-02-26T14:07:56;11.10;;;4.25;;
48765;SDS011;65794;51.836;5.002;2024-02-26T14:10:24;9.60;;;3.83;;
48765;SDS011;65794;51.836;5.002;2024-02-26T14:12:51;9.23;;;4.32;;
48765;SDS011;65794;51.836;5.002;2024-02-26T14:15:17;7.25;;;3.25;;
48765;SDS011;65794;51.836;5.002;2024-02-26T14:17:44;7.18;;;3.03;;
48765;SDS011;65794;51.836;5.002;2024-02-26T14:20:12;8.70;;;3.80;;
48765;SDS011;65794;51.836;5.002;2024-02-26T14:22:39;9.38;;;4.00;;
48765;SDS011;65794;51.836;5.002;2024-02-26T14:25:06;9.27;;;3.50;;
48765;SDS011;65794;51.836;5.002;2024-02-26T14:27:36;14.52;;;4.82;;
48765;SDS011;65794;51.836;5.002;2024-02-26T14:30:03;9.82;;;3.65;;
48765;SDS011;65794;51.836;5.002;2024-02-26T14:32:31;13.10;;;3.72;;
48765;SDS011;65794;51.836;5.002;2024-02-26T14:35:02;8.98;;;4.20;;
48765;SDS011;65794;51.836;5.002;2024-02-26T14:37:29;9.00;;;4.10;;
48765;SDS011;65794;51.836;5.002;2024-02-26T14:39:56;9.32;;;3.72;;
48765;SDS011;65794;51.836;5.002;2024-02-26T14:42:23;7.65;;;3.47;;
48765;SDS011;65794;51.836;5.002;2024-02-26T14:44:51;8.25;;;3.00;;
48765;SDS011;65794;51.836;5.002;2024-02-26T14:47:17;6.97;;;3.28;;
48765;SDS011;65794;51.836;5.002;2024-02-26T14:49:44;9.10;;;3.83;;
48765;SDS011;65794;51.836;5.002;2024-02-26T14:52:14;6.53;;;3.30;;
48765;SDS011;65794;51.836;5.002;2024-02-26T14:54:41;9.45;;;3.60;;